Monday, August 20, 2018, 8:01 PM EDT
Back to Local

KWWD, Wildwood, Cape May County Airport

Location: Villas, NJ, United States Lat: 39.017
Local Time: 8:01 PM EDT ( 0:01 GMT) Lon: -74.917
Time Zone: US/Eastern Elev: 22 ft

Show me the last for .
Show Coded

Time T Td Feel RH Dir Speed Gust Alt SLP Vis Weather Sky Remarks
2018-08-20 19:07 73 66 77 78 70° 12 - 30.09 - 10 SCT017 None
2018-08-20 18:55 74 67 78 78 60° 10 - 30.09 30.10 10 BKN017 None
2018-08-20 18:29 75 68 79 78 70° 8 - 30.09 - 10 BKN017 BKN065 None
2018-08-20 17:55 75 67 78 75 50° 12 - 30.09 30.10 10 FEW019 OVC070 None
2018-08-20 17:52 75 66 78 73 40° 12 - 30.09 - 10 FEW019 OVC070 None
2018-08-20 17:45 75 66 78 73 50° 9 - 30.10 - 10 BKN019 OVC070 None
2018-08-20 17:35 73 66 77 78 50° 9 - 30.10 - 10 SCT019 OVC070 None
2018-08-20 17:24 75 66 78 73 60° 14 - 30.09 - 10 BKN019 OVC070 None
2018-08-20 16:55 75 67 78 75 70° 13 - 30.10 30.11 10 FEW019 OVC070 None
2018-08-20 15:55 77 68 80 73 70° 13 - 30.10 30.10 10 SCT018 BKN065 None
2018-08-20 15:52 77 68 80 73 70° 12 - 30.10 - 10 SCT018 BKN065 None
2018-08-20 15:40 75 68 79 78 40° 15 - 30.10 - 10 BKN018 OVC065 None
2018-08-20 14:55 75 67 78 75 60° 13 - 30.11 30.11 10 SCT018 BKN050 OVC060 None
2018-08-20 14:53 75 68 79 78 50° 14 - 30.11 - 10 SCT018 BKN050 OVC060 None
2018-08-20 14:39 75 68 79 78 50° 9 - 30.12 - 10 BKN018 OVC055 None
2018-08-20 14:32 75 68 79 78 40° 14 - 30.12 - 10 SCT018 OVC050 None
2018-08-20 13:55 75 68 78 78 50° 15 - 30.12 30.13 10 BKN020 OVC047 6-hr Min Temp (2pm): 72.0°F
6-hr Max Temp (2pm): 75.9°F
2018-08-20 12:55 76 68 79 76 50° 14 - 30.11 30.11 10 BKN020 BKN025 OVC040 None
2018-08-20 11:55 75 68 78 78 70° 12 - 30.11 30.12 10 OVC017 None
2018-08-20 10:55 76 69 79 79 60° 15 - 30.10 30.11 10 OVC015 None
2018-08-20 10:02 73 68 77 83 60° 15 22 30.10 - 10 BKN015 None
2018-08-20 09:55 74 68 78 81 60° 14 17 30.10 30.10 10 BKN013 None
2018-08-20 09:49 73 68 77 83 50° 15 - 30.09 - 10 BKN013 None
2018-08-20 09:43 73 70 77 88 60° 16 20 30.09 - 10 SCT013 None
2018-08-20 09:25 73 70 77 88 60° 12 20 30.09 - 10 BKN013 None
2018-08-20 08:55 73 68 77 84 50° 14 - 30.09 30.09 10 SCT011 None
2018-08-20 08:31 72 68 76 88 60° 9 - 30.09 - 10 SCT011 SCT025 None
2018-08-20 07:55 72 68 76 87 40° 9 - 30.10 30.10 10 OVC021 24-hr Precip Total (8am): 0.02"
6-hr Min Temp (8am): 70.0°F
6-hr Max Temp (8am): 72.0°F
2018-08-20 06:55 70 68 - 93 30° 8 - 30.08 30.08 10 FEW008 OVC015 None
2018-08-20 06:49 70 68 - 94 40° 8 - 30.07 - 10 SCT008 OVC015 None
2018-08-20 05:55 70 68 - 93 40° 10 - 30.05 30.05 10 OVC008 None
2018-08-20 05:44 70 68 - 94 40° 10 - 30.04 - 10 OVC008 None
2018-08-20 04:55 71 69 76 93 50° 6 - 30.05 30.06 10 OVC014 None
2018-08-20 04:43 72 70 76 94 50° 9 - 30.05 - 10 BKN014 BKN019 OVC047 None
2018-08-20 04:33 72 70 76 94 50° 8 - 30.05 - 10 SCT014 BKN019 OVC047 None
2018-08-20 03:55 72 69 76 90 50° 9 - 30.05 30.06 10 SCT015 BKN055 OVC070 None
2018-08-20 03:23 72 70 76 94 40° 9 - 30.04 - 10 BKN015 None
2018-08-20 02:55 71 69 76 93 40° 10 - 30.04 30.04 10 OVC011 None
2018-08-20 02:52 72 70 76 94 40° 9 - 30.04 - 10 OVC011 None
2018-08-20 02:42 72 70 76 94 60° 8 - 30.04 - 10 BKN009 OVC014 None
2018-08-20 02:09 72 70 76 94 50° 8 - 30.04 - 10 OVC013 None
2018-08-20 01:55 72 69 76 90 50° 9 - 30.04 30.04 10 OVC015 6-hr Precip Total (2am): 0.02"
6-hr Min Temp (2am): 71.1°F
6-hr Max Temp (2am): 72.0°F
2018-08-20 01:38 72 70 76 94 50° 9 - 30.04 - 10 BKN015 OVC021 None
2018-08-20 00:55 72 69 76 90 50° 12 - 30.04 30.04 10 OVC013 1-hr Precip Total: Trace
24-hr Min Temp (1am): 71.1°F
24-hr Max Temp (1am): 80.1°F
2018-08-19 23:55 71 69 76 93 50° 10 - 30.04 30.05 9 -RA BKN013 OVC023 1-hr Precip Total: 0.02"
2018-08-19 23:39 72 70 76 94 50° 13 - 30.04 - 5 -RA BR SCT010 BKN015 OVC023 1-hr Precip Total: 0.02"
2018-08-19 22:55 71 69 76 93 40° 12 20 30.05 30.05 10 -RA OVC012 1-hr Precip Total: Trace
6-hr Precip Total (11pm): 0.00"
2018-08-19 21:55 72 69 76 90 40° 12 - 30.03 30.03 10 OVC010 None
2018-08-19 20:55 71 69 76 93 50° 13 - 30.01 30.02 10 OVC008 None
2018-08-19 20:12 72 70 76 94 40° 14 20 30.00 - 10 OVC008 None

Support USWX by starting your Amazon purchase here.